Time;durP1;ratioP1;P1;durP2;ratioP2;P2;SDS_P1;SDS_P2;PMS_P1;PMS_P2;Temp;Humidity;BMP_temperature;BMP_pressure;BME280_temperature;BME280_humidity;BME280_pressure;Samples;Min_cycle;Max_cycle;Signal;HPM_P1;HPM_P2
2022/11/06 15:37:22;;;;;;;27.58;19.32;;;;;;;2.85;100.00;101634.44;1831718;76;20981;-62
2022/11/06 15:39:52;;;;;;;25.95;17.30;;;;;;;2.84;100.00;101639.20;1836600;76;21004;-60
2022/11/06 15:42:23;;;;;;;23.65;15.32;;;;;;;2.82;100.00;101636.73;1849431;76;21548;-59
2022/11/06 15:44:51;;;;;;;45.83;30.23;;;;;;;2.82;100.00;101635.91;1827556;76;21150;-59
2022/11/06 15:47:23;;;;;;;33.23;24.50;;;;;;;2.84;100.00;101636.19;1849597;76;20879;-59
2022/11/06 15:50:08;;;;;;;29.85;21.50;;;;;;;2.96;100.00;101637.14;1843057;76;20974;-58
2022/11/06 15:52:35;;;;;;;24.50;14.53;;;;;;;3.00;100.00;101640.34;1803241;78;21469;-60
2022/11/06 15:55:02;;;;;;;24.40;15.03;;;;;;;2.91;100.00;101636.59;1811565;78;21321;-59
2022/11/06 15:57:29;;;;;;;24.55;14.58;;;;;;;2.87;100.00;101635.14;1778395;78;21209;-59
2022/11/06 16:00:14;;;;;;;26.40;15.88;;;;;;;2.88;100.00;101638.92;1769193;79;20987;-59
2022/11/06 16:02:57;;;;;;;26.73;15.53;;;;;;;2.86;100.00;101641.23;1795613;78;21041;-59
2022/11/06 16:05:26;;;;;;;29.18;18.45;;;;;;;2.85;100.00;101642.98;1767236;79;21007;-60
2022/11/06 16:07:53;;;;;;;33.50;21.10;;;;;;;2.85;100.00;101648.13;1772828;79;21576;-67
2022/11/06 16:10:20;;;;;;;34.33;25.40;;;;;;;2.88;100.00;101645.83;1799127;78;21246;-59
2022/11/06 16:12:48;;;;;;;38.00;26.52;;;;;;;2.87;100.00;101648.02;1776948;80;21035;-59
2022/11/06 16:15:49;;;;;;;26.00;17.00;;;;;;;3.00;100.00;101647.60;1769964;79;20948;-60
2022/11/06 16:18:27;;;;;;;77.45;44.15;;;;;;;2.92;100.00;101643.41;1777512;79;21412;-58
2022/11/06 16:21:13;;;;;;;44.95;28.23;;;;;;;2.95;100.00;101643.19;1811562;78;20879;-65
2022/11/06 16:23:52;;;;;;;43.28;26.37;;;;;;;2.98;100.00;101643.00;1769685;79;21142;-59
2022/11/06 16:26:35;;;;;;;35.78;21.93;;;;;;;2.94;100.00;101647.99;1821868;78;20994;-59
2022/11/06 16:29:09;;;;;;;35.08;22.75;;;;;;;3.00;100.00;101650.18;1824764;78;21524;-59
2022/11/06 16:31:36;;;;;;;29.70;19.85;;;;;;;3.03;100.00;101651.27;1812527;78;21015;-58
2022/11/06 16:34:05;;;;;;;30.15;20.05;;;;;;;2.96;100.00;101653.87;1804908;78;21029;-59
2022/11/06 16:37:02;;;;;;;27.05;18.40;;;;;;;3.02;100.00;101649.59;1799251;78;21895;-58
2022/11/06 16:39:46;;;;;;;26.93;18.37;;;;;;;3.01;100.00;101653.58;1755647;81;20987;-59
2022/11/06 16:42:37;;;;;;;29.20;19.17;;;;;;;3.04;100.00;101654.67;1749884;81;21094;-76
2022/11/06 16:45:22;;;;;;;30.43;20.05;;;;;;;3.05;100.00;101650.70;1769020;79;20950;-59
2022/11/06 16:48:10;;;;;;;25.65;16.97;;;;;;;3.02;100.00;101650.89;1768272;80;20946;-60
2022/11/06 16:50:51;;;;;;;23.45;15.00;;;;;;;3.01;100.00;101653.58;1791865;78;21222;-58
2022/11/06 16:53:20;;;;;;;25.90;18.15;;;;;;;3.06;100.00;101657.48;1762528;79;21568;-63
2022/11/06 16:55:58;;;;;;;22.22;14.20;;;;;;;3.07;100.00;101654.02;1816504;78;21307;-58
2022/11/06 16:58:25;;;;;;;23.10;13.25;;;;;;;3.05;100.00;101652.45;1805194;78;20887;-59
2022/11/06 17:01:02;;;;;;;17.73;12.58;;;;;;;3.00;100.00;101656.62;1814837;78;20999;-58
2022/11/06 17:03:40;;;;;;;17.27;13.20;;;;;;;3.02;100.00;101654.75;1806955;78;22005;-63
2022/11/06 17:06:17;;;;;;;21.15;14.70;;;;;;;3.02;100.00;101657.80;1770168;79;20895;-59
2022/11/06 17:08:44;;;;;;;19.77;14.33;;;;;;;3.02;100.00;101658.62;1790620;78;21480;-59
2022/11/06 17:11:19;;;;;;;20.55;13.58;;;;;;;3.04;100.00;101660.64;1750917;78;20950;-59
2022/11/06 17:13:48;;;;;;;18.85;13.38;;;;;;;3.02;100.00;101656.05;1773929;79;21109;-59
2022/11/06 17:16:17;;;;;;;21.25;15.35;;;;;;;3.02;100.00;101659.91;1779570;79;21280;-63
2022/11/06 17:18:44;;;;;;;22.52;14.90;;;;;;;3.04;100.00;101650.81;1769744;79;21044;-66
2022/11/06 17:21:17;;;;;;;20.25;15.28;;;;;;;3.03;100.00;101657.72;1790611;78;20985;-59
2022/11/06 17:23:45;;;;;;;24.23;16.52;;;;;;;3.02;100.00;101651.36;1792335;78;21024;-61
2022/11/06 17:26:26;;;;;;;22.67;14.75;;;;;;;3.02;100.00;101652.17;1806358;78;21030;-58
2022/11/06 17:28:58;;;;;;;16.17;12.10;;;;;;;3.03;100.00;101649.98;1774141;79;20995;-64
2022/11/06 17:31:25;;;;;;;21.05;14.00;;;;;;;3.05;100.00;101651.98;1795292;78;21336;-58
2022/11/06 17:33:54;;;;;;;17.98;13.20;;;;;;;3.04;100.00;101652.92;1773580;79;20899;-59
2022/11/06 17:36:24;;;;;;;20.27;14.80;;;;;;;3.03;100.00;101652.56;1771428;79;20995;-59
2022/11/06 17:38:51;;;;;;;24.60;18.05;;;;;;;3.04;100.00;101652.09;1816097;78;21165;-60
2022/11/06 17:41:31;;;;;;;22.07;15.03;;;;;;;3.05;100.00;101655.03;1801293;78;21791;-64
2022/11/06 17:44:07;;;;;;;19.60;14.00;;;;;;;3.08;100.00;101650.50;1779407;80;21015;-59
2022/11/06 17:46:40;;;;;;;18.42;13.10;;;;;;;3.11;100.00;101652.06;1800031;78;21013;-61
2022/11/06 17:49:07;;;;;;;18.50;12.05;;;;;;;3.09;100.00;101649.56;1795654;78;20985;-59
2022/11/06 17:51:49;;;;;;;14.83;11.15;;;;;;;3.17;100.00;101653.75;1803578;78;20935;-58
2022/11/06 17:54:17;;;;;;;26.52;16.65;;;;;;;3.22;100.00;101654.77;1806734;78;21441;-70
2022/11/06 17:56:44;;;;;;;26.40;17.12;;;;;;;3.26;100.00;101651.05;1824822;78;21481;-59
2022/11/06 17:59:12;;;;;;;33.53;21.05;;;;;;;3.29;100.00;101649.54;1822554;78;21281;-58
2022/11/06 18:01:39;;;;;;;21.42;15.68;;;;;;;3.31;100.00;101651.56;1779553;79;20999;-58
2022/11/06 18:04:07;;;;;;;20.52;14.50;;;;;;;3.31;100.00;101649.45;1766479;79;21034;-61
2022/11/06 18:06:34;;;;;;;18.65;12.78;;;;;;;3.29;100.00;101653.41;1782597;79;21402;-73
2022/11/06 18:09:04;;;;;;;22.37;16.73;;;;;;;3.29;100.00;101652.11;1810977;78;21455;-58
2022/11/06 18:11:31;;;;;;;18.98;14.33;;;;;;;3.29;100.00;101652.58;1811449;78;21330;-58
2022/11/06 18:13:58;;;;;;;27.65;17.77;;;;;;;3.28;100.00;101653.05;1802895;78;21705;-58
2022/11/06 18:16:27;;;;;;;43.42;26.62;;;;;;;3.31;100.00;101648.17;1800511;78;20934;-61
2022/11/06 18:18:55;;;;;;;33.33;22.65;;;;;;;3.34;100.00;101651.37;1818315;78;21726;-60
2022/11/06 18:21:23;;;;;;;33.90;20.90;;;;;;;3.35;100.00;101649.61;1823076;78;20995;-58
2022/11/06 18:23:51;;;;;;;23.27;15.68;;;;;;;3.30;100.00;101646.52;1807111;78;21003;-58
2022/11/06 18:26:22;;;;;;;28.62;18.42;;;;;;;3.31;100.00;101641.72;1800468;78;20990;-60
2022/11/06 18:28:50;;;;;;;35.70;24.07;;;;;;;3.27;100.00;101642.86;1818641;78;20981;-58
2022/11/06 18:31:18;;;;;;;26.30;17.30;;;;;;;3.24;100.00;101645.62;1817595;78;21097;-58
2022/11/06 18:33:45;;;;;;;25.62;17.17;;;;;;;3.25;100.00;101641.65;1811531;78;21003;-58
2022/11/06 18:36:12;;;;;;;27.45;18.75;;;;;;;3.23;100.00;101640.13;1810047;78;20895;-62
2022/11/06 18:38:39;;;;;;;30.62;19.52;;;;;;;2.87;100.00;101644.98;1766090;80;21505;-60
2022/11/06 18:41:10;;;;;;;22.15;14.68;;;;;;;3.01;100.00;101649.25;1777323;79;21019;-58
2022/11/06 18:43:37;;;;;;;25.30;17.57;;;;;;;3.05;100.00;101647.30;1805616;78;21318;-58
2022/11/06 18:46:09;;;;;;;34.67;25.12;;;;;;;3.01;100.00;101648.42;1818054;78;20901;-76
2022/11/06 18:48:36;;;;;;;;;;;;;;;3.03;100.00;101647.84;1785277;80;21007;-58
2022/11/06 18:51:17;;;;;;;26.52;18.95;;;;;;;3.05;100.00;101644.25;1800242;78;20162;-58
2022/11/06 18:53:44;;;;;;;22.00;15.10;;;;;;;3.04;100.00;101643.90;1813172;78;20916;-59
2022/11/06 18:56:14;;;;;;;50.45;38.10;;;;;;;3.02;100.00;101650.06;1813646;78;21142;-59
2022/11/06 18:58:43;;;;;;;19.52;14.35;;;;;;;3.03;100.00;101649.98;1807498;78;20897;-59
2022/11/06 19:01:13;;;;;;;22.60;16.75;;;;;;;3.16;100.00;101652.11;1777326;80;21533;-58
2022/11/06 19:03:40;;;;;;;24.50;15.10;;;;;;;3.20;100.00;101647.58;1767808;79;21003;-74
2022/11/06 19:06:15;;;;;;;17.42;12.55;;;;;;;3.21;100.00;101652.27;1798297;78;21358;-58
2022/11/06 19:08:44;;;;;;;21.87;15.40;;;;;;;3.17;100.00;101651.64;1784359;80;21125;-58
2022/11/06 19:11:13;;;;;;;24.07;16.52;;;;;;;3.17;100.00;101652.93;1767345;79;21012;-58
2022/11/06 19:13:41;;;;;;;17.70;13.53;;;;;;;3.03;100.00;101652.56;1777999;79;20983;-73
2022/11/06 19:16:11;;;;;;;20.50;14.70;;;;;;;2.96;100.00;101659.03;1801513;78;21084;-58
2022/11/06 19:18:38;;;;;;;17.98;13.05;;;;;;;2.95;100.00;101659.11;1768743;79;20995;-58
2022/11/06 19:21:08;;;;;;;32.15;24.07;;;;;;;2.94;100.00;101649.28;1793696;78;21204;-58
2022/11/06 19:23:39;;;;;;;22.37;17.23;;;;;;;2.94;100.00;101647.99;1811011;78;21176;-58
2022/11/06 19:26:07;;;;;;;21.35;14.70;;;;;;;2.93;100.00;101647.64;1796296;78;21069;-58
2022/11/06 19:28:34;;;;;;;29.48;16.73;;;;;;;2.96;100.00;101648.73;1796848;78;20990;-58
2022/11/06 19:31:02;;;;;;;15.40;8.75;;;;;;;2.95;100.00;101650.09;1799673;78;21018;-59
2022/11/06 19:33:30;;;;;;;14.45;9.25;;;;;;;3.02;100.00;101652.17;1777948;80;21127;-58
2022/11/06 19:35:59;;;;;;;10.25;7.10;;;;;;;3.04;100.00;101650.34;1823220;78;21504;-59
2022/11/06 19:38:26;;;;;;;9.68;6.62;;;;;;;3.05;100.00;101648.13;1816056;78;21468;-59
2022/11/06 19:40:59;;;;;;;9.78;7.10;;;;;;;3.05;100.00;101644.72;1777902;80;21044;-58
2022/11/06 19:43:28;;;;;;;18.23;12.90;;;;;;;3.07;100.00;101642.86;1823515;78;21042;-58
2022/11/06 19:45:59;;;;;;;18.52;12.13;;;;;;;3.08;100.00;101646.64;1793870;78;21171;-58
2022/11/06 19:48:30;;;;;;;23.38;16.50;;;;;;;3.09;100.00;101647.45;1773318;79;20975;-58
2022/11/06 19:50:58;;;;;;;20.40;14.25;;;;;;;3.23;100.00;101645.28;1790694;78;20986;-59
2022/11/06 19:53:25;;;;;;;20.97;12.75;;;;;;;3.25;100.00;101646.80;1779430;79;21561;-58
2022/11/06 19:55:52;;;;;;;13.35;8.85;;;;;;;3.17;100.00;101652.46;1776467;80;21089;-58
2022/11/06 19:58:20;;;;;;;12.68;8.80;;;;;;;3.09;100.00;101648.75;1817036;78;21100;-59
2022/11/06 20:00:47;;;;;;;8.93;5.85;;;;;;;3.14;100.00;101645.39;1806645;78;20967;-58
2022/11/06 20:03:15;;;;;;;11.97;8.53;;;;;;;3.11;100.00;101649.02;1789459;80;20900;-59
2022/11/06 20:05:42;;;;;;;18.15;12.63;;;;;;;3.32;100.00;101643.37;1816876;78;20906;-72
2022/11/06 20:08:11;;;;;;;20.08;13.60;;;;;;;3.33;100.00;101637.27;1810738;78;21049;-59
2022/11/06 20:10:40;;;;;;;17.82;11.48;;;;;;;3.09;100.00;101639.73;1794396;78;22462;-58
2022/11/06 20:13:08;;;;;;;17.00;11.75;;;;;;;3.22;100.00;101634.14;1803431;78;21049;-58
2022/11/06 20:15:36;;;;;;;14.87;10.80;;;;;;;3.20;100.00;101633.87;1763370;79;21025;-58
2022/11/06 20:18:03;;;;;;;18.62;12.85;;;;;;;3.17;100.00;101632.31;1818800;78;21826;-61
2022/11/06 20:20:30;;;;;;;18.82;11.75;;;;;;;3.19;100.00;101636.09;1806466;78;21858;-58
2022/11/06 20:22:58;;;;;;;17.70;11.78;;;;;;;3.17;100.00;101631.84;1794737;78;21155;-59
2022/11/06 20:25:25;;;;;;;21.60;14.23;;;;;;;3.16;100.00;101631.96;1771677;79;21030;-58
2022/11/06 20:27:54;;;;;;;24.05;16.55;;;;;;;3.22;100.00;101625.56;1810846;78;21434;-59
2022/11/06 20:30:21;;;;;;;18.20;13.00;;;;;;;3.20;100.00;101627.44;1777193;79;21183;-59
2022/11/06 20:32:48;;;;;;;21.10;14.25;;;;;;;3.20;100.00;101624.86;1775751;79;21058;-58
2022/11/06 20:35:18;;;;;;;22.07;15.43;;;;;;;3.20;100.00;101626.97;1816430;78;21140;-58
2022/11/06 20:37:44;;;;;;;16.67;10.55;;;;;;;3.21;100.00;101616.20;1823316;78;20990;-74
2022/11/06 20:40:12;;;;;;;19.00;11.55;;;;;;;3.23;100.00;101611.78;1807761;78;21073;-58
2022/11/06 20:42:40;;;;;;;17.70;11.68;;;;;;;3.21;100.00;101613.15;1796530;78;21833;-58
2022/11/06 20:45:08;;;;;;;19.20;13.08;;;;;;;3.13;100.00;101608.50;1820789;78;21465;-59
2022/11/06 20:47:36;;;;;;;18.60;12.78;;;;;;;3.09;100.00;101607.53;1769062;79;21289;-58
2022/11/06 20:50:04;;;;;;;18.23;11.33;;;;;;;3.08;100.00;101606.70;1819703;78;21049;-58
2022/11/06 20:52:32;;;;;;;20.68;10.98;;;;;;;3.10;100.00;101604.02;1813107;78;20975;-59
2022/11/06 20:54:59;;;;;;;17.02;11.30;;;;;;;3.10;100.00;101599.69;1817116;78;20998;-58
2022/11/06 20:57:28;;;;;;;21.10;13.30;;;;;;;3.14;100.00;101599.87;1818221;78;21244;-66
2022/11/06 20:59:55;;;;;;;19.57;12.90;;;;;;;3.12;100.00;101592.69;1812139;78;21139;-60
2022/11/06 21:02:23;;;;;;;23.95;13.98;;;;;;;3.13;100.00;101595.63;1812101;78;21513;-58
2022/11/06 21:04:50;;;;;;;23.25;14.20;;;;;;;3.15;100.00;101593.78;1821841;78;21017;-59
2022/11/06 21:07:19;;;;;;;23.20;14.55;;;;;;;3.17;100.00;101588.52;1801628;78;21034;-61
2022/11/06 21:09:47;;;;;;;22.55;13.22;;;;;;;3.16;100.00;101589.45;1814571;78;21029;-58
2022/11/06 21:12:16;;;;;;;20.17;13.45;;;;;;;3.14;100.00;101584.84;1788422;78;21281;-58
2022/11/06 21:14:44;;;;;;;20.40;13.70;;;;;;;3.16;100.00;101589.45;1783267;80;21150;-59
2022/11/06 21:17:11;;;;;;;17.85;11.73;;;;;;;3.19;100.00;101587.14;1779121;79;21126;-60
2022/11/06 21:19:41;;;;;;;21.45;14.28;;;;;;;3.21;100.00;101593.00;1774501;79;21097;-61
2022/11/06 21:22:08;;;;;;;18.05;11.85;;;;;;;3.21;100.00;101588.67;1795992;78;21029;-58
2022/11/06 21:24:37;;;;;;;18.67;10.48;;;;;;;3.22;100.00;101589.48;1787186;78;21302;-58
2022/11/06 21:27:04;;;;;;;17.05;10.72;;;;;;;3.42;100.00;101581.27;1774764;79;20944;-58
2022/11/06 21:29:31;;;;;;;16.67;10.93;;;;;;;3.48;100.00;101582.58;1808980;78;21038;-64
2022/11/06 21:31:58;;;;;;;15.63;10.82;;;;;;;3.51;100.00;101579.34;1802712;78;21007;-58
2022/11/06 21:34:25;;;;;;;19.00;12.10;;;;;;;3.43;100.00;101581.61;1806830;78;20958;-58
2022/11/06 21:36:52;;;;;;;18.15;13.43;;;;;;;3.49;100.00;101585.08;1790715;78;22219;-58
2022/11/06 21:39:20;;;;;;;18.45;11.50;;;;;;;3.53;100.00;101574.91;1813210;78;20974;-58
2022/11/06 21:41:47;;;;;;;15.20;11.35;;;;;;;3.51;100.00;101573.36;1811009;78;21029;-59
2022/11/06 21:44:16;;;;;;;17.73;12.60;;;;;;;3.34;100.00;101580.95;1777624;79;20982;-58
2022/11/06 21:46:44;;;;;;;14.95;10.65;;;;;;;3.42;100.00;101576.11;1772607;80;21553;-62
2022/11/06 21:49:13;;;;;;;13.75;9.43;;;;;;;3.40;100.00;101575.38;1815467;78;20872;-59
2022/11/06 21:51:40;;;;;;;14.45;9.68;;;;;;;3.37;100.00;101579.00;1767794;79;20991;-59
2022/11/06 21:56:57;;;;;;;11.55;7.55;;;;;;;3.45;100.00;101585.36;1802931;78;21050;-58
2022/11/06 21:59:27;;;;;;;12.45;8.45;;;;;;;3.32;100.00;101581.05;1790145;78;20950;-59
2022/11/06 22:02:01;;;;;;;11.33;8.25;;;;;;;3.32;100.00;101576.36;1791216;78;21197;-58
2022/11/06 22:04:29;;;;;;;13.13;9.68;;;;;;;3.31;100.00;101580.69;1668477;83;21034;-65
2022/11/06 22:06:56;;;;;;;11.90;8.80;;;;;;;3.31;100.00;101577.30;1667470;83;21452;-58
2022/11/06 22:09:24;;;;;;;13.88;9.85;;;;;;;3.31;100.00;101573.43;1692435;84;20936;-58
2022/11/06 22:11:52;;;;;;;13.20;8.85;;;;;;;3.37;100.00;101572.56;1669830;83;21541;-58
2022/11/06 22:14:19;;;;;;;12.18;8.55;;;;;;;3.23;100.00;101567.97;1684098;83;21850;-75
2022/11/06 22:16:47;;;;;;;10.80;8.48;;;;;;;3.24;100.00;101568.33;1682245;84;20945;-58
2022/11/06 22:19:14;;;;;;;11.50;8.25;;;;;;;3.33;100.00;101568.98;1679801;84;20981;-58
2022/11/06 22:21:41;;;;;;;11.40;8.30;;;;;;;3.38;100.00;101568.22;1679756;84;21139;-58
2022/11/06 22:24:11;;;;;;;12.60;8.80;;;;;;;3.41;100.00;101568.02;1663613;83;21646;-58
2022/11/06 22:26:39;;;;;;;12.45;9.03;;;;;;;3.43;100.00;101569.20;1688324;84;20945;-60
2022/11/06 22:29:09;;;;;;;10.38;7.30;;;;;;;3.44;100.00;101567.79;1681589;84;21470;-61
2022/11/06 22:31:38;;;;;;;11.03;7.83;;;;;;;3.43;100.00;101570.02;1694662;81;21490;-59
2022/11/06 22:34:05;;;;;;;11.97;7.70;;;;;;;3.42;100.00;101577.39;1714427;82;21078;-59
2022/11/06 22:36:35;;;;;;;12.07;8.05;;;;;;;3.38;100.00;101570.80;1715499;82;21011;-58
2022/11/06 22:39:07;;;;;;;10.00;6.65;;;;;;;3.30;100.00;101575.66;1722269;82;21149;-59
2022/11/06 22:41:36;;;;;;;11.50;7.40;;;;;;;3.33;100.00;101578.85;1719417;82;21006;-60
2022/11/06 22:44:04;;;;;;;12.05;7.70;;;;;;;3.38;100.00;101584.51;1719965;82;20993;-67
2022/11/06 22:46:31;;;;;;;12.23;8.53;;;;;;;3.44;100.00;101574.23;1694745;83;21087;-58
2022/11/06 22:48:58;;;;;;;11.50;8.25;;;;;;;3.50;100.00;101577.69;1659967;84;21054;-58
2022/11/06 22:51:28;;;;;;;10.43;7.92;;;;;;;3.46;100.00;101577.55;1689092;84;21696;-58
2022/11/06 22:53:56;;;;;;;12.13;8.10;;;;;;;3.46;100.00;101578.84;1678876;84;21626;-76
2022/11/06 22:56:23;;;;;;;12.60;7.58;;;;;;;3.50;100.00;101579.45;1721683;83;21005;-58
2022/11/06 22:58:59;;;;;;;12.07;7.25;;;;;;;3.44;100.00;101578.56;1708627;82;21597;-59
2022/11/06 23:01:29;;;;;;;13.68;8.03;;;;;;;3.47;100.00;101584.34;1678615;84;21106;-59
2022/11/06 23:04:01;;;;;;;12.80;8.30;;;;;;;3.48;100.00;101580.83;1717748;82;21273;-63
2022/11/06 23:06:29;;;;;;;14.05;8.93;;;;;;;3.52;100.00;101585.31;1692567;84;21012;-59
2022/11/06 23:08:56;;;;;;;10.90;7.25;;;;;;;3.51;100.00;101581.91;1687439;83;20989;-59
2022/11/06 23:11:26;;;;;;;9.75;6.92;;;;;;;3.53;100.00;101586.52;1727132;82;20963;-59
2022/11/06 23:13:53;;;;;;;11.45;7.70;;;;;;;3.56;100.00;101584.17;1689756;83;20977;-71
2022/11/06 23:19:13;;;;;;;10.88;8.00;;;;;;;3.59;100.00;101588.66;1666790;84;21116;-59
2022/11/06 23:21:41;;;;;;;11.03;7.37;;;;;;;3.60;100.00;101591.61;1669071;84;21155;-66
2022/11/06 23:24:09;;;;;;;9.85;6.45;;;;;;;3.60;100.00;101587.75;1674749;84;21901;-60
2022/11/06 23:26:38;;;;;;;8.70;5.65;;;;;;;3.60;100.00;101587.75;1673449;85;21108;-60
2022/11/06 23:29:05;;;;;;;8.75;5.97;;;;;;;3.71;100.00;101593.90;1685527;84;21256;-58
2022/11/06 23:31:32;;;;;;;8.85;6.50;;;;;;;3.70;100.00;101596.95;1686788;84;21565;-63
2022/11/06 23:34:00;;;;;;;9.35;7.00;;;;;;;3.66;100.00;101591.17;1689287;83;21055;-59
2022/11/06 23:36:29;;;;;;;9.58;6.92;;;;;;;3.71;100.00;101593.90;1667765;84;21129;-60
2022/11/06 23:38:56;;;;;;;8.33;6.25;;;;;;;3.68;100.00;101595.42;1690121;83;20924;-59
2022/11/06 23:41:41;;;;;;;10.82;6.08;;;;;;;3.71;100.00;101595.19;1665771;84;21266;-71
2022/11/06 23:45:47;;;;;;;9.83;6.55;;;;;;;3.71;100.00;101597.77;1688368;83;20932;-59
2022/11/06 23:46:38;;;;;;;8.30;5.70;;;;;;;3.71;100.00;101601.17;1654406;84;21051;-59
2022/11/06 23:49:05;;;;;;;7.83;5.67;;;;;;;3.64;100.00;101599.97;1688090;84;21131;-74
2022/11/06 23:51:34;;;;;;;9.13;6.30;;;;;;;3.74;100.00;101593.23;1659184;84;21038;-60
2022/11/06 23:54:01;;;;;;;9.63;7.60;;;;;;;3.76;100.00;101594.43;1692611;83;21269;-60
2022/11/06 23:56:29;;;;;;;11.08;7.15;;;;;;;3.79;100.00;101584.72;1719475;82;20992;-59
2022/11/06 23:58:56;;;;;;;11.60;6.78;;;;;;;3.86;100.00;101590.26;1711347;82;21537;-59
